< < Back
Terminal Aerodrome Forecast


Current Version              Previous Versions:   1  2  3  4  5  6  7  8  9  

Terminal Aerodrome Forecast

456
FTUS42 KGSP 182300
TAFHKY
TAF
KHKY 182334Z 1900/1924 00000KT P6SM OVC090
     FM190400 00000KT 5SM BR BKN027
     FM190600 00000KT 4SM BR BKN010
     FM191000 03003KT 2SM BR BKN008
     FM191400 08003KT P6SM BKN015
     FM191700 10004KT P6SM BKN022
     FM192200 09006KT P6SM BKN035=

Latest METAR

017
SAUS70 KWBC 182300 RRB
MTRHKY
METAR KHKY 182253Z 00000KT 10SM OVC085 22/17 A3000 RMK AO2 SLP139
T02220172


USA.gov is the U.S. government's official web portal to all federal, state and local government web resources and services.